sensor_id;sensor_type;location;lat;lon;timestamp;pressure;altitude;pressure_sealevel;temperature;humidity
33486;BME280;19824;52.098;5.004;2022-12-04T00:00:12;102009.34;;;2.84;78.63
33486;BME280;19824;52.098;5.004;2022-12-04T00:02:41;102007.69;;;2.82;78.42
33486;BME280;19824;52.098;5.004;2022-12-04T00:05:12;102021.03;;;2.77;78.72
33486;BME280;19824;52.098;5.004;2022-12-04T00:07:40;102016.69;;;2.76;78.97
33486;BME280;19824;52.098;5.004;2022-12-04T00:10:10;102013.53;;;2.88;79.02
33486;BME280;19824;52.098;5.004;2022-12-04T00:12:39;102013.41;;;2.91;78.02
33486;BME280;19824;52.098;5.004;2022-12-04T00:15:10;102019.06;;;2.82;79.10
33486;BME280;19824;52.098;5.004;2022-12-04T00:17:54;102015.78;;;2.77;79.45
33486;BME280;19824;52.098;5.004;2022-12-04T00:20:25;102013.69;;;2.85;78.90
33486;BME280;19824;52.098;5.004;2022-12-04T00:22:53;102009.50;;;2.80;79.64
33486;BME280;19824;52.098;5.004;2022-12-04T00:25:22;102008.53;;;2.82;79.39
33486;BME280;19824;52.098;5.004;2022-12-04T00:27:50;102004.59;;;2.92;79.14
33486;BME280;19824;52.098;5.004;2022-12-04T00:30:19;102008.25;;;2.88;79.16
33486;BME280;19824;52.098;5.004;2022-12-04T00:32:48;102013.41;;;2.91;78.62
33486;BME280;19824;52.098;5.004;2022-12-04T00:35:16;102007.13;;;2.93;79.48
33486;BME280;19824;52.098;5.004;2022-12-04T00:37:47;102001.69;;;2.98;78.67
33486;BME280;19824;52.098;5.004;2022-12-04T00:40:16;102002.97;;;2.89;78.89
33486;BME280;19824;52.098;5.004;2022-12-04T00:42:45;101994.19;;;2.89;79.39
33486;BME280;19824;52.098;5.004;2022-12-04T00:45:13;102001.28;;;2.87;79.18
33486;BME280;19824;52.098;5.004;2022-12-04T00:47:42;101989.22;;;2.83;79.32
33486;BME280;19824;52.098;5.004;2022-12-04T00:50:11;101987.38;;;2.85;78.82
33486;BME280;19824;52.098;5.004;2022-12-04T00:52:40;101980.41;;;2.84;79.53
33486;BME280;19824;52.098;5.004;2022-12-04T00:55:11;101975.28;;;2.81;79.51
33486;BME280;19824;52.098;5.004;2022-12-04T00:57:40;101974.28;;;2.84;79.49
33486;BME280;19824;52.098;5.004;2022-12-04T01:00:09;101976.13;;;2.82;79.68
33486;BME280;19824;52.098;5.004;2022-12-04T01:02:38;101982.25;;;2.82;79.94
33486;BME280;19824;52.098;5.004;2022-12-04T01:05:07;101985.38;;;2.90;78.86
33486;BME280;19824;52.098;5.004;2022-12-04T01:07:37;101996.25;;;2.83;78.66
33486;BME280;19824;52.098;5.004;2022-12-04T01:10:12;101995.44;;;2.81;79.05
33486;BME280;19824;52.098;5.004;2022-12-04T01:12:41;101986.75;;;2.79;79.10
33486;BME280;19824;52.098;5.004;2022-12-04T01:15:10;101986.84;;;2.77;79.40
33486;BME280;19824;52.098;5.004;2022-12-04T01:17:39;101992.91;;;2.79;80.09
33486;BME280;19824;52.098;5.004;2022-12-04T01:20:10;101981.38;;;2.82;79.60
33486;BME280;19824;52.098;5.004;2022-12-04T01:22:39;101988.22;;;2.86;78.98
33486;BME280;19824;52.098;5.004;2022-12-04T01:25:09;101989.06;;;2.86;79.24
33486;BME280;19824;52.098;5.004;2022-12-04T01:27:39;101994.59;;;2.80;79.58
33486;BME280;19824;52.098;5.004;2022-12-04T01:30:10;101994.47;;;2.83;79.85
33486;BME280;19824;52.098;5.004;2022-12-04T01:32:38;101995.31;;;2.84;79.53
33486;BME280;19824;52.098;5.004;2022-12-04T01:35:08;101991.06;;;2.81;80.06
33486;BME280;19824;52.098;5.004;2022-12-04T01:37:37;101986.50;;;2.85;79.35
33486;BME280;19824;52.098;5.004;2022-12-04T01:40:10;101989.34;;;2.80;79.89
33486;BME280;19824;52.098;5.004;2022-12-04T01:42:42;101984.88;;;2.82;79.39
33486;BME280;19824;52.098;5.004;2022-12-04T01:45:40;101983.41;;;2.75;79.96
33486;BME280;19824;52.098;5.004;2022-12-04T01:48:18;101986.84;;;2.77;80.30
33486;BME280;19824;52.098;5.004;2022-12-04T01:50:53;101989.22;;;2.83;80.07
33486;BME280;19824;52.098;5.004;2022-12-04T01:53:23;101984.81;;;2.84;80.26
33486;BME280;19824;52.098;5.004;2022-12-04T01:55:52;101986.31;;;2.89;79.35
33486;BME280;19824;52.098;5.004;2022-12-04T01:58:28;101986.94;;;2.76;79.36
33486;BME280;19824;52.098;5.004;2022-12-04T02:01:03;101984.09;;;2.80;79.65
33486;BME280;19824;52.098;5.004;2022-12-04T02:03:35;101995.97;;;2.88;79.86
33486;BME280;19824;52.098;5.004;2022-12-04T02:06:05;101983.66;;;2.89;79.52
33486;BME280;19824;52.098;5.004;2022-12-04T02:08:34;101993.94;;;2.95;79.85
33486;BME280;19824;52.098;5.004;2022-12-04T02:11:16;102004.00;;;2.86;79.85
33486;BME280;19824;52.098;5.004;2022-12-04T02:13:58;102001.28;;;2.87;79.76
33486;BME280;19824;52.098;5.004;2022-12-04T02:16:33;101995.78;;;2.93;79.96
33486;BME280;19824;52.098;5.004;2022-12-04T02:19:27;101992.66;;;2.85;80.08
33486;BME280;19824;52.098;5.004;2022-12-04T02:22:01;101996.19;;;2.84;80.27
33486;BME280;19824;52.098;5.004;2022-12-04T02:24:44;101992.66;;;2.85;80.25
33486;BME280;19824;52.098;5.004;2022-12-04T02:27:31;101995.78;;;2.93;80.40
33486;BME280;19824;52.098;5.004;2022-12-04T02:30:07;101985.38;;;2.90;80.18
33486;BME280;19824;52.098;5.004;2022-12-04T02:32:41;101985.97;;;2.96;79.80
33486;BME280;19824;52.098;5.004;2022-12-04T02:35:15;101984.13;;;2.98;79.82
33486;BME280;19824;52.098;5.004;2022-12-04T02:37:51;101983.66;;;2.89;80.50
33486;BME280;19824;52.098;5.004;2022-12-04T02:40:26;101976.69;;;2.88;80.28
33486;BME280;19824;52.098;5.004;2022-12-04T02:43:01;101976.56;;;2.91;80.51
33486;BME280;19824;52.098;5.004;2022-12-04T02:45:38;101981.13;;;2.88;80.00
33486;BME280;19824;52.098;5.004;2022-12-04T02:48:08;101979.00;;;2.95;80.08
33486;BME280;19824;52.098;5.004;2022-12-04T02:50:39;101971.31;;;2.91;80.22
33486;BME280;19824;52.098;5.004;2022-12-04T02:53:13;101976.69;;;2.88;79.96
33486;BME280;19824;52.098;5.004;2022-12-04T02:55:48;101963.72;;;2.85;80.88
33486;BME280;19824;52.098;5.004;2022-12-04T02:58:24;101961.94;;;2.86;80.99
33486;BME280;19824;52.098;5.004;2022-12-04T03:00:57;101967.78;;;2.92;80.06
33486;BME280;19824;52.098;5.004;2022-12-04T03:03:30;101962.97;;;3.01;79.90
33486;BME280;19824;52.098;5.004;2022-12-04T03:06:04;101960.78;;;2.91;80.24
33486;BME280;19824;52.098;5.004;2022-12-04T03:08:36;101959.78;;;2.93;80.01
33486;BME280;19824;52.098;5.004;2022-12-04T03:11:06;101955.41;;;2.94;80.66
33486;BME280;19824;52.098;5.004;2022-12-04T03:13:40;101958.41;;;3.05;79.90
33486;BME280;19824;52.098;5.004;2022-12-04T03:16:16;101956.25;;;2.94;80.74
33486;BME280;19824;52.098;5.004;2022-12-04T03:18:50;101962.25;;;2.98;80.69
33486;BME280;19824;52.098;5.004;2022-12-04T03:21:25;101957.25;;;2.92;80.60
33486;BME280;19824;52.098;5.004;2022-12-04T03:24:04;101943.19;;;2.93;80.36
33486;BME280;19824;52.098;5.004;2022-12-04T03:26:37;101954.88;;;2.86;80.69
33486;BME280;19824;52.098;5.004;2022-12-04T03:29:12;101951.31;;;2.87;81.07
33486;BME280;19824;52.098;5.004;2022-12-04T03:31:46;101952.84;;;2.92;80.16
33486;BME280;19824;52.098;5.004;2022-12-04T03:34:29;101950.72;;;3.00;80.38
33486;BME280;19824;52.098;5.004;2022-12-04T03:37:06;101950.41;;;2.88;81.09
33486;BME280;19824;52.098;5.004;2022-12-04T03:39:42;101959.09;;;2.90;80.40
33486;BME280;19824;52.098;5.004;2022-12-04T03:42:17;101939.88;;;2.88;80.72
33486;BME280;19824;52.098;5.004;2022-12-04T03:44:52;101938.59;;;2.78;80.92
33486;BME280;19824;52.098;5.004;2022-12-04T03:47:31;101938.47;;;2.81;80.78
33486;BME280;19824;52.098;5.004;2022-12-04T03:50:07;101934.78;;;2.85;81.32
33486;BME280;19824;52.098;5.004;2022-12-04T03:52:47;101944.34;;;2.86;80.71
33486;BME280;19824;52.098;5.004;2022-12-04T03:55:23;101933.66;;;2.90;80.45
33486;BME280;19824;52.098;5.004;2022-12-04T03:58:01;101941.47;;;2.92;80.73
33486;BME280;19824;52.098;5.004;2022-12-04T04:00:32;101943.19;;;2.93;80.64
33486;BME280;19824;52.098;5.004;2022-12-04T04:03:10;101946.03;;;2.88;80.44
33486;BME280;19824;52.098;5.004;2022-12-04T04:05:46;101947.06;;;2.85;81.17
33486;BME280;19824;52.098;5.004;2022-12-04T04:08:18;101949.47;;;2.89;81.27
33486;BME280;19824;52.098;5.004;2022-12-04T04:11:03;101940.28;;;2.99;80.81
33486;BME280;19824;52.098;5.004;2022-12-04T04:13:42;101941.69;;;3.06;80.36
33486;BME280;19824;52.098;5.004;2022-12-04T04:16:28;101942.03;;;2.98;80.90
33486;BME280;19824;52.098;5.004;2022-12-04T04:19:15;101939.25;;;2.83;80.86
33486;BME280;19824;52.098;5.004;2022-12-04T04:21:59;101931.50;;;2.80;81.63
33486;BME280;19824;52.098;5.004;2022-12-04T04:24:48;101931.06;;;2.89;81.25
33486;BME280;19824;52.098;5.004;2022-12-04T04:27:18;101922.56;;;2.84;81.56
33486;BME280;19824;52.098;5.004;2022-12-04T04:29:46;101930.25;;;2.88;81.10
33486;BME280;19824;52.098;5.004;2022-12-04T04:32:25;101921.47;;;2.88;80.79
33486;BME280;19824;52.098;5.004;2022-12-04T04:35:08;101928.41;;;2.90;81.10
33486;BME280;19824;52.098;5.004;2022-12-04T04:37:52;101919.59;;;2.91;80.50
33486;BME280;19824;52.098;5.004;2022-12-04T04:40:29;101926.91;;;2.85;81.66
33486;BME280;19824;52.098;5.004;2022-12-04T04:43:07;101925.94;;;2.86;81.33
33486;BME280;19824;52.098;5.004;2022-12-04T04:45:42;101923.31;;;2.86;81.79
33486;BME280;19824;52.098;5.004;2022-12-04T04:48:15;101939.75;;;2.91;81.36
33486;BME280;19824;52.098;5.004;2022-12-04T04:50:49;101936.22;;;2.92;81.55
33486;BME280;19824;52.098;5.004;2022-12-04T04:53:24;101939.88;;;2.88;81.60
33486;BME280;19824;52.098;5.004;2022-12-04T04:55:54;101936.75;;;2.80;81.66
33486;BME280;19824;52.098;5.004;2022-12-04T04:58:23;101936.56;;;2.85;81.34
33486;BME280;19824;52.098;5.004;2022-12-04T05:00:57;101930.84;;;2.75;82.24
33486;BME280;19824;52.098;5.004;2022-12-04T05:03:27;101939.88;;;2.88;81.59
33486;BME280;19824;52.098;5.004;2022-12-04T05:05:59;101938.06;;;2.90;81.05
33486;BME280;19824;52.098;5.004;2022-12-04T05:08:27;101941.69;;;2.88;81.69
33486;BME280;19824;52.098;5.004;2022-12-04T05:10:56;101947.59;;;2.92;81.92
33486;BME280;19824;52.098;5.004;2022-12-04T05:13:27;101944.88;;;2.94;81.33
33486;BME280;19824;52.098;5.004;2022-12-04T05:15:57;101950.41;;;2.88;81.89
33486;BME280;19824;52.098;5.004;2022-12-04T05:18:27;101947.19;;;2.82;82.34
33486;BME280;19824;52.098;5.004;2022-12-04T05:20:58;101952.13;;;2.89;81.63
33486;BME280;19824;52.098;5.004;2022-12-04T05:23:25;101951.06;;;2.93;81.93
33486;BME280;19824;52.098;5.004;2022-12-04T05:25:59;101944.44;;;2.85;81.79
33486;BME280;19824;52.098;5.004;2022-12-04T05:28:28;101952.13;;;2.89;81.98
33486;BME280;19824;52.098;5.004;2022-12-04T05:30:58;101948.19;;;2.79;81.88
33486;BME280;19824;52.098;5.004;2022-12-04T05:33:28;101949.47;;;2.89;81.90
33486;BME280;19824;52.098;5.004;2022-12-04T05:36:01;101950.56;;;2.85;81.89
33486;BME280;19824;52.098;5.004;2022-12-04T05:38:30;101965.84;;;2.95;82.09
33486;BME280;19824;52.098;5.004;2022-12-04T05:41:01;101966.44;;;3.02;81.34
33486;BME280;19824;52.098;5.004;2022-12-04T05:43:30;101956.41;;;2.91;81.92
33486;BME280;19824;52.098;5.004;2022-12-04T05:46:00;101963.44;;;2.91;82.15
33486;BME280;19824;52.098;5.004;2022-12-04T05:48:29;101960.75;;;2.92;81.54
33486;BME280;19824;52.098;5.004;2022-12-04T05:51:03;101962.50;;;2.92;82.15
33486;BME280;19824;52.098;5.004;2022-12-04T05:53:32;101963.28;;;2.94;82.09
33486;BME280;19824;52.098;5.004;2022-12-04T05:56:04;101965.50;;;3.03;81.46
33486;BME280;19824;52.098;5.004;2022-12-04T05:58:34;101962.13;;;3.01;81.77
33486;BME280;19824;52.098;5.004;2022-12-04T06:01:11;101955.28;;;2.97;82.08
33486;BME280;19824;52.098;5.004;2022-12-04T06:03:40;101957.13;;;2.95;82.10
33486;BME280;19824;52.098;5.004;2022-12-04T06:06:13;101953.63;;;2.94;82.06
33486;BME280;19824;52.098;5.004;2022-12-04T06:08:48;101954.22;;;3.01;82.37
33486;BME280;19824;52.098;5.004;2022-12-04T06:11:19;101963.22;;;2.95;82.63
33486;BME280;19824;52.098;5.004;2022-12-04T06:13:49;101961.13;;;3.03;81.43
33486;BME280;19824;52.098;5.004;2022-12-04T06:16:21;101950.59;;;3.03;81.86
33486;BME280;19824;52.098;5.004;2022-12-04T06:18:51;101962.13;;;3.01;81.84
33486;BME280;19824;52.098;5.004;2022-12-04T06:21:24;101948.66;;;3.07;82.07
33486;BME280;19824;52.098;5.004;2022-12-04T06:23:54;101951.72;;;2.98;82.17
33486;BME280;19824;52.098;5.004;2022-12-04T06:26:24;101949.72;;;3.03;82.11
33486;BME280;19824;52.098;5.004;2022-12-04T06:28:53;101954.00;;;3.05;82.26
33486;BME280;19824;52.098;5.004;2022-12-04T06:31:24;101949.72;;;3.03;82.25
33486;BME280;19824;52.098;5.004;2022-12-04T06:33:54;101949.72;;;3.03;82.56
33486;BME280;19824;52.098;5.004;2022-12-04T06:36:25;101957.44;;;3.07;82.42
33486;BME280;19824;52.098;5.004;2022-12-04T06:38:56;101946.75;;;3.10;82.34
33486;BME280;19824;52.098;5.004;2022-12-04T06:41:26;101960.13;;;3.06;82.24
33486;BME280;19824;52.098;5.004;2022-12-04T06:43:55;101951.59;;;3.01;82.43
33486;BME280;19824;52.098;5.004;2022-12-04T06:46:27;101951.72;;;2.98;82.06
33486;BME280;19824;52.098;5.004;2022-12-04T06:48:58;101950.50;;;3.05;81.73
33486;BME280;19824;52.098;5.004;2022-12-04T06:51:31;101949.31;;;3.12;82.44
33486;BME280;19824;52.098;5.004;2022-12-04T06:54:00;101949.53;;;3.07;82.56
33486;BME280;19824;52.098;5.004;2022-12-04T06:56:31;101950.38;;;3.08;81.76
33486;BME280;19824;52.098;5.004;2022-12-04T06:59:02;101951.44;;;3.04;82.11
33486;BME280;19824;52.098;5.004;2022-12-04T07:01:33;101954.84;;;3.06;82.16
33486;BME280;19824;52.098;5.004;2022-12-04T07:04:02;101959.97;;;3.09;82.06
33486;BME280;19824;52.098;5.004;2022-12-04T07:06:35;101956.84;;;3.01;82.71
33486;BME280;19824;52.098;5.004;2022-12-04T07:09:06;101962.25;;;2.98;83.18
33486;BME280;19824;52.098;5.004;2022-12-04T07:11:37;101955.91;;;3.02;82.53
33486;BME280;19824;52.098;5.004;2022-12-04T07:14:06;101958.41;;;3.05;82.40
33486;BME280;19824;52.098;5.004;2022-12-04T07:16:35;101956.56;;;3.07;82.33
33486;BME280;19824;52.098;5.004;2022-12-04T07:19:08;101962.25;;;2.98;82.75
33486;BME280;19824;52.098;5.004;2022-12-04T07:21:39;101958.41;;;3.05;82.45
33486;BME280;19824;52.098;5.004;2022-12-04T07:24:13;101956.69;;;3.04;82.70
33486;BME280;19824;52.098;5.004;2022-12-04T07:26:42;101949.59;;;3.06;82.49
33486;BME280;19824;52.098;5.004;2022-12-04T07:29:11;101952.31;;;3.04;82.63
33486;BME280;19824;52.098;5.004;2022-12-04T07:31:40;101950.72;;;3.00;82.98
33486;BME280;19824;52.098;5.004;2022-12-04T07:34:09;101957.47;;;3.06;82.03
33486;BME280;19824;52.098;5.004;2022-12-04T07:36:40;101956.06;;;2.99;82.21
33486;BME280;19824;52.098;5.004;2022-12-04T07:39:09;101955.63;;;3.08;82.00
33486;BME280;19824;52.098;5.004;2022-12-04T07:41:38;101961.13;;;3.03;82.09
33486;BME280;19824;52.098;5.004;2022-12-04T07:44:07;101957.63;;;3.03;82.58
33486;BME280;19824;52.098;5.004;2022-12-04T07:46:36;101969.22;;;2.99;83.22
33486;BME280;19824;52.098;5.004;2022-12-04T07:49:04;101972.44;;;3.05;82.15
33486;BME280;19824;52.098;5.004;2022-12-04T07:51:33;101963.41;;;3.11;82.54
33486;BME280;19824;52.098;5.004;2022-12-04T07:54:03;101967.66;;;3.13;82.48
33486;BME280;19824;52.098;5.004;2022-12-04T07:56:34;101971.50;;;3.06;82.29
33486;BME280;19824;52.098;5.004;2022-12-04T07:59:03;101980.03;;;3.11;82.85
33486;BME280;19824;52.098;5.004;2022-12-04T08:01:32;101979.44;;;3.05;82.96
33486;BME280;19824;52.098;5.004;2022-12-04T08:04:01;101982.59;;;3.13;82.52
33486;BME280;19824;52.098;5.004;2022-12-04T08:06:33;101985.09;;;3.16;82.39
33486;BME280;19824;52.098;5.004;2022-12-04T08:09:05;101976.56;;;3.11;82.86
33486;BME280;19824;52.098;5.004;2022-12-04T08:11:36;101982.25;;;3.20;82.04
33486;BME280;19824;52.098;5.004;2022-12-04T08:14:05;101981.53;;;3.17;82.87
33486;BME280;19824;52.098;5.004;2022-12-04T08:16:35;101984.91;;;3.20;82.47
33486;BME280;19824;52.098;5.004;2022-12-04T08:19:04;101980.47;;;3.21;82.53
33486;BME280;19824;52.098;5.004;2022-12-04T08:21:33;101987.41;;;3.23;82.06
33486;BME280;19824;52.098;5.004;2022-12-04T08:24:04;101993.75;;;3.18;83.04
33486;BME280;19824;52.098;5.004;2022-12-04T08:26:33;102000.22;;;3.11;83.19
33486;BME280;19824;52.098;5.004;2022-12-04T08:29:04;102000.38;;;3.08;83.19
33486;BME280;19824;52.098;5.004;2022-12-04T08:31:37;102005.94;;;3.20;82.34
33486;BME280;19824;52.098;5.004;2022-12-04T08:34:07;102003.34;;;3.19;83.21
33486;BME280;19824;52.098;5.004;2022-12-04T08:36:39;102001.72;;;3.16;83.44
33486;BME280;19824;52.098;5.004;2022-12-04T08:39:11;102000.72;;;3.19;83.12
33486;BME280;19824;52.098;5.004;2022-12-04T08:41:41;102004.22;;;3.19;82.89
33486;BME280;19824;52.098;5.004;2022-12-04T08:44:14;102003.34;;;3.19;83.46
33486;BME280;19824;52.098;5.004;2022-12-04T08:46:46;102002.38;;;3.21;83.05
33486;BME280;19824;52.098;5.004;2022-12-04T08:49:15;102004.38;;;3.35;82.43
33486;BME280;19824;52.098;5.004;2022-12-04T08:51:43;102000.25;;;3.29;83.13
33486;BME280;19824;52.098;5.004;2022-12-04T08:54:14;102007.81;;;3.37;82.85
33486;BME280;19824;52.098;5.004;2022-12-04T08:56:43;102011.31;;;3.37;82.40
33486;BME280;19824;52.098;5.004;2022-12-04T08:59:12;102013.97;;;3.36;83.10
33486;BME280;19824;52.098;5.004;2022-12-04T09:01:41;102012.22;;;3.36;82.58
33486;BME280;19824;52.098;5.004;2022-12-04T09:04:10;102020.38;;;3.30;83.20
33486;BME280;19824;52.098;5.004;2022-12-04T09:06:38;102019.53;;;3.30;83.04
33486;BME280;19824;52.098;5.004;2022-12-04T09:09:07;102019.25;;;3.36;82.54
33486;BME280;19824;52.098;5.004;2022-12-04T09:11:38;102018.31;;;3.37;83.11
33486;BME280;19824;52.098;5.004;2022-12-04T09:14:07;102024.72;;;3.31;82.66
33486;BME280;19824;52.098;5.004;2022-12-04T09:16:35;102024.28;;;3.40;82.51
33486;BME280;19824;52.098;5.004;2022-12-04T09:19:04;102017.19;;;3.42;82.39
33486;BME280;19824;52.098;5.004;2022-12-04T09:21:33;102014.91;;;3.35;83.04
33486;BME280;19824;52.098;5.004;2022-12-04T09:24:04;102016.41;;;3.40;82.71
33486;BME280;19824;52.098;5.004;2022-12-04T09:26:33;102013.19;;;3.34;82.91
33486;BME280;19824;52.098;5.004;2022-12-04T09:29:05;102005.13;;;3.38;83.24
33486;BME280;19824;52.098;5.004;2022-12-04T09:31:33;102014.38;;;3.47;82.20
33486;BME280;19824;52.098;5.004;2022-12-04T09:34:03;102007.81;;;3.55;82.34
33486;BME280;19824;52.098;5.004;2022-12-04T09:36:31;102016.22;;;3.45;82.54
33486;BME280;19824;52.098;5.004;2022-12-04T09:39:00;102012.81;;;3.43;82.85
33486;BME280;19824;52.098;5.004;2022-12-04T09:44:34;102024.59;;;3.53;82.59
33486;BME280;19824;52.098;5.004;2022-12-04T09:47:10;101997.56;;;3.49;82.47
33486;BME280;19824;52.098;5.004;2022-12-04T09:49:44;101997.94;;;3.42;82.36
33486;BME280;19824;52.098;5.004;2022-12-04T09:52:26;102007.06;;;3.53;83.00
33486;BME280;19824;52.098;5.004;2022-12-04T09:54:59;101998.38;;;3.51;82.50
33486;BME280;19824;52.098;5.004;2022-12-04T09:57:37;102004.59;;;3.49;82.74
33486;BME280;19824;52.098;5.004;2022-12-04T10:00:15;102005.69;;;3.63;81.67
33486;BME280;19824;52.098;5.004;2022-12-04T10:02:50;102002.72;;;3.52;83.03
33486;BME280;19824;52.098;5.004;2022-12-04T10:05:32;102015.09;;;3.50;83.06
33486;BME280;19824;52.098;5.004;2022-12-04T10:08:09;101999.72;;;3.60;82.57
33486;BME280;19824;52.098;5.004;2022-12-04T10:10:53;102000.44;;;3.45;82.47
33486;BME280;19824;52.098;5.004;2022-12-04T10:13:43;102001.41;;;3.42;82.59
33486;BME280;19824;52.098;5.004;2022-12-04T10:16:22;102011.09;;;3.42;83.30
33486;BME280;19824;52.098;5.004;2022-12-04T10:19:02;102001.47;;;3.41;83.10
33486;BME280;19824;52.098;5.004;2022-12-04T10:21:47;102004.13;;;3.41;83.44
33486;BME280;19824;52.098;5.004;2022-12-04T10:24:30;102015.69;;;3.37;83.45
33486;BME280;19824;52.098;5.004;2022-12-04T10:27:11;102006.47;;;3.47;83.13
33486;BME280;19824;52.098;5.004;2022-12-04T10:29:41;102006.31;;;3.50;83.48
33486;BME280;19824;52.098;5.004;2022-12-04T10:32:22;102006.13;;;3.54;82.65
33486;BME280;19824;52.098;5.004;2022-12-04T10:34:56;102012.44;;;3.50;83.25
33486;BME280;19824;52.098;5.004;2022-12-04T10:37:27;102001.06;;;3.50;83.23
33486;BME280;19824;52.098;5.004;2022-12-04T10:40:02;102010.94;;;3.45;83.41
33486;BME280;19824;52.098;5.004;2022-12-04T10:42:38;102004.03;;;3.42;83.53
33486;BME280;19824;52.098;5.004;2022-12-04T10:45:09;101996.44;;;3.55;83.14
33486;BME280;19824;52.098;5.004;2022-12-04T10:47:44;101992.19;;;3.52;83.87
33486;BME280;19824;52.098;5.004;2022-12-04T10:50:18;101992.88;;;3.56;83.28
33486;BME280;19824;52.098;5.004;2022-12-04T10:52:47;101996.00;;;3.64;82.94
33486;BME280;19824;52.098;5.004;2022-12-04T10:55:28;101989.94;;;3.43;83.58
33486;BME280;19824;52.098;5.004;2022-12-04T10:57:58;101991.88;;;3.40;83.12
33486;BME280;19824;52.098;5.004;2022-12-04T11:00:30;101984.78;;;3.42;83.66
33486;BME280;19824;52.098;5.004;2022-12-04T11:03:03;101988.75;;;3.32;83.47
33486;BME280;19824;52.098;5.004;2022-12-04T11:05:52;101986.34;;;3.46;83.07
33486;BME280;19824;52.098;5.004;2022-12-04T11:08:25;101990.44;;;3.33;83.64
33486;BME280;19824;52.098;5.004;2022-12-04T11:11:00;101978.38;;;3.47;82.60
33486;BME280;19824;52.098;5.004;2022-12-04T11:13:35;101976.38;;;3.52;82.67
33486;BME280;19824;52.098;5.004;2022-12-04T11:16:34;101969.38;;;3.33;82.53
33486;BME280;19824;52.098;5.004;2022-12-04T11:19:20;101973.53;;;3.38;83.10
33486;BME280;19824;52.098;5.004;2022-12-04T11:21:49;101973.22;;;3.44;82.91
33486;BME280;19824;52.098;5.004;2022-12-04T11:24:22;101972.25;;;3.47;83.29
33486;BME280;19824;52.098;5.004;2022-12-04T11:26:53;101974.09;;;3.45;83.45
33486;BME280;19824;52.098;5.004;2022-12-04T11:29:37;101975.38;;;3.36;82.43
33486;BME280;19824;52.098;5.004;2022-12-04T11:32:24;101963.84;;;3.39;82.53
33486;BME280;19824;52.098;5.004;2022-12-04T11:35:06;101966.69;;;3.34;82.37
33486;BME280;19824;52.098;5.004;2022-12-04T11:37:40;101967.13;;;3.44;83.27
33486;BME280;19824;52.098;5.004;2022-12-04T11:40:17;101965.56;;;3.40;82.84
33486;BME280;19824;52.098;5.004;2022-12-04T11:43:01;101959.00;;;3.48;82.45
33486;BME280;19824;52.098;5.004;2022-12-04T11:45:30;101962.00;;;3.59;81.95
33486;BME280;19824;52.098;5.004;2022-12-04T11:48:05;101954.44;;;3.52;82.79
33486;BME280;19824;52.098;5.004;2022-12-04T11:50:51;101953.03;;;3.45;82.38
33486;BME280;19824;52.098;5.004;2022-12-04T11:53:42;101950.75;;;3.56;82.02
33486;BME280;19824;52.098;5.004;2022-12-04T11:56:21;101937.94;;;3.48;82.65
33486;BME280;19824;52.098;5.004;2022-12-04T11:59:15;101922.03;;;3.51;82.66
33486;BME280;19824;52.098;5.004;2022-12-04T12:01:55;101917.47;;;3.55;82.79
33486;BME280;19824;52.098;5.004;2022-12-04T12:04:56;101922.84;;;3.70;81.98
33486;BME280;19824;52.098;5.004;2022-12-04T12:07:41;101922.13;;;3.67;82.07
33486;BME280;19824;52.098;5.004;2022-12-04T12:10:19;101931.41;;;3.57;82.17
33486;BME280;19824;52.098;5.004;2022-12-04T12:12:59;101921.78;;;3.56;81.71
33486;BME280;19824;52.098;5.004;2022-12-04T12:15:40;101930.41;;;3.59;81.94
33486;BME280;19824;52.098;5.004;2022-12-04T12:18:33;101931.41;;;3.57;81.76
33486;BME280;19824;52.098;5.004;2022-12-04T12:21:16;101931.41;;;3.57;81.94
33486;BME280;19824;52.098;5.004;2022-12-04T12:24:04;101924.44;;;3.56;81.83
33486;BME280;19824;52.098;5.004;2022-12-04T12:26:43;101930.25;;;3.62;82.30
33486;BME280;19824;52.098;5.004;2022-12-04T12:29:26;101926.84;;;3.60;82.31
33486;BME280;19824;52.098;5.004;2022-12-04T12:32:14;101925.84;;;3.63;81.67
33486;BME280;19824;52.098;5.004;2022-12-04T12:34:47;101925.25;;;3.75;81.25
33486;BME280;19824;52.098;5.004;2022-12-04T12:37:22;101928.97;;;3.71;81.94
33486;BME280;19824;52.098;5.004;2022-12-04T12:40:00;101927.06;;;3.56;80.98
33486;BME280;19824;52.098;5.004;2022-12-04T12:42:35;101930.41;;;3.59;82.22
33486;BME280;19824;52.098;5.004;2022-12-04T12:45:17;101933.94;;;3.58;81.83
33486;BME280;19824;52.098;5.004;2022-12-04T12:47:54;101921.44;;;3.63;81.46
33486;BME280;19824;52.098;5.004;2022-12-04T12:50:29;101917.78;;;3.66;81.40
33486;BME280;19824;52.098;5.004;2022-12-04T12:53:09;101920.28;;;3.69;81.42
33486;BME280;19824;52.098;5.004;2022-12-04T12:55:47;101908.34;;;3.62;81.18
33486;BME280;19824;52.098;5.004;2022-12-04T12:58:23;101916.44;;;3.57;81.89
33486;BME280;19824;52.098;5.004;2022-12-04T13:00:59;101915.00;;;3.69;81.45
33486;BME280;19824;52.098;5.004;2022-12-04T13:03:38;101910.97;;;3.62;81.29
33486;BME280;19824;52.098;5.004;2022-12-04T13:06:15;101909.97;;;3.64;81.35
33486;BME280;19824;52.098;5.004;2022-12-04T13:08:58;101915.59;;;3.57;82.01
33486;BME280;19824;52.098;5.004;2022-12-04T13:11:32;101912.31;;;3.70;81.45
33486;BME280;19824;52.098;5.004;2022-12-04T13:14:02;101917.50;;;3.72;81.13
33486;BME280;19824;52.098;5.004;2022-12-04T13:16:37;101896.59;;;3.69;81.23
33486;BME280;19824;52.098;5.004;2022-12-04T13:19:15;101909.59;;;3.72;81.26
33486;BME280;19824;52.098;5.004;2022-12-04T13:21:50;101903.13;;;3.60;81.67
33486;BME280;19824;52.098;5.004;2022-12-04T13:24:45;101893.88;;;3.70;81.28
33486;BME280;19824;52.098;5.004;2022-12-04T13:27:28;101897.78;;;3.80;80.97
33486;BME280;19824;52.098;5.004;2022-12-04T13:30:11;101888.81;;;3.66;81.17
33486;BME280;19824;52.098;5.004;2022-12-04T13:33:14;101886.00;;;3.70;80.77
33486;BME280;19824;52.098;5.004;2022-12-04T13:36:09;101890.09;;;3.76;81.13
33486;BME280;19824;52.098;5.004;2022-12-04T13:38:54;101880.78;;;3.69;81.15